Terminal Aerodrome Forecast
Issued by NWS

Home | Current Version | Previous Version | Text Only | Print | Product List | Glossary On
Versions: 1 2 3 4 5 6 7 8 9 10 11 12 13 14 15
286
FTPA31 PHFO 301907 AAA
TAFHLI
TAF AMD
PHLI 301907Z 3019/3118 05015KT P6SM VCSH BKN020 BKN045
     FM302000 05015KT P6SM VCSH SCT025 BKN045
     FM310800 05010KT P6SM VCSH SCT020 BKN030=

USA.gov is the U.S. government's official web portal to all federal, state and local government web resources and services.